In Rescue
 
Open Full Screen Window  High Contrast Mode
November 29, 2022 8:01 AM CST
Present Weather: Light Snow
Weather Information
Wind Direction
  ---
Wind Speed
  00 kt (0 mph)
Wind Gust
  00 kt (0 mph)
Altimeter
29.72 in
Visibility
1 1/4 SM
Temperature
-03° C
27° F
Dewpoint
-05° C
23° F
Humidity
86%
1hr Rain Fall
00.00 in.
24hr Rain Fall
00.00 in.
Sky Condition
Overcast @ 600 ft
IFR

METAR KMZH 291401Z AUTO 00000KT 1 1/4SM -SN OVC006 M03/M05 A2972 RMK AO2

FAA Disclaimer: The data displayed is for advisory purposes only and is not to be used for flight planning or operations.